Time;durP1;ratioP1;P1;durP2;ratioP2;P2;SDS_P1;SDS_P2;PMS_P1;PMS_P2;Temp;Humidity;BMP_temperature;BMP_pressure;BME280_temperature;BME280_humidity;BME280_pressure;Samples;Min_cycle;Max_cycle;Signal;HPM_P1;HPM_P2
2024/02/16 05:48:02;;;;;;;5.07;2.35;;;;;;;;;;5001599;27;20425;-66
2024/02/16 05:50:43;;;;;;;5.47;2.17;;;;;;;;;;4995408;28;20165;-69
2024/02/16 05:53:11;;;;;;;4.82;2.15;;;;;;;;;;4968295;28;20061;-69
2024/02/16 05:58:18;;;;;;;6.75;2.78;;;;;;;;;;4991699;28;20351;-69
2024/02/16 06:00:47;;;;;;;7.07;2.28;;;;;;;;;;4983144;28;20140;-67
2024/02/16 06:03:15;;;;;;;7.03;2.85;;;;;;;;;;4985075;28;20046;-69
2024/02/16 06:05:44;;;;;;;8.93;3.15;;;;;;;;;;4983437;28;20113;-67
2024/02/16 06:08:11;;;;;;;;;;;;;;;;;;4962382;28;20050;-67
2024/02/16 06:10:38;;;;;;;6.88;2.53;;;;;;;;;;5006585;28;19945;-69
2024/02/16 06:13:05;;;;;;;6.47;2.35;;;;;;;;;;4981742;28;20055;-66
2024/02/16 06:15:33;;;;;;;7.50;3.05;;;;;;;;;;4979795;28;20049;-68
2024/02/16 06:18:03;;;;;;;9.88;2.75;;;;;;;;;;4966659;28;20133;-72
2024/02/16 06:20:31;;;;;;;9.35;2.20;;;;;;;;;;4978735;28;20071;-66
2024/02/16 06:22:58;;;;;;;9.10;2.20;;;;;;;;;;4983265;28;21284;-70
2024/02/16 06:25:25;;;;;;;4.97;2.03;;;;;;;;;;4982220;28;20050;-68
2024/02/16 06:27:52;;;;;;;8.57;2.38;;;;;;;;;;4965654;28;20154;-69
2024/02/16 06:30:19;;;;;;;4.70;2.33;;;;;;;;;;4983592;28;20120;-66
2024/02/16 06:32:47;;;;;;;6.63;2.53;;;;;;;;;;4990189;28;20062;-65
2024/02/16 06:35:14;;;;;;;6.07;2.53;;;;;;;;;;4982584;28;20074;-65
2024/02/16 06:37:43;;;;;;;6.20;2.28;;;;;;;;;;4966432;28;20137;-66
2024/02/16 06:40:14;;;;;;;6.10;2.40;;;;;;;;;;4983418;28;20945;-68
2024/02/16 06:42:42;;;;;;;11.30;3.40;;;;;;;;;;4988510;28;20054;-69
2024/02/16 06:45:16;;;;;;;7.80;3.20;;;;;;;;;;4974644;28;20065;-71
2024/02/16 06:47:57;;;;;;;8.20;3.30;;;;;;;;;;5003178;28;20306;-69
2024/02/16 06:50:34;;;;;;;11.85;3.53;;;;;;;;;;4984263;28;20058;-67
2024/02/16 06:53:03;;;;;;;9.02;3.00;;;;;;;;;;4987564;28;20050;-70
2024/02/16 06:55:30;;;;;;;8.23;3.28;;;;;;;;;;5018720;28;20156;-68
2024/02/16 06:57:57;;;;;;;12.18;3.75;;;;;;;;;;4962721;28;20092;-66
2024/02/16 07:00:24;;;;;;;7.72;3.50;;;;;;;;;;4976653;28;20062;-68
2024/02/16 07:02:51;;;;;;;10.05;3.63;;;;;;;;;;4978648;28;20128;-68
2024/02/16 07:05:19;;;;;;;9.57;4.43;;;;;;;;;;4968632;28;20073;-66
2024/02/16 07:07:50;;;;;;;9.25;4.47;;;;;;;;;;4967302;28;20127;-69
2024/02/16 07:10:21;;;;;;;9.55;4.03;;;;;;;;;;4974673;28;20112;-65
2024/02/16 07:12:48;;;;;;;11.98;3.95;;;;;;;;;;4973147;28;20046;-66
2024/02/16 07:15:17;;;;;;;16.33;3.80;;;;;;;;;;4985311;28;20054;-69
2024/02/16 07:17:47;;;;;;;11.02;3.60;;;;;;;;;;4960442;28;20062;-67
2024/02/16 07:20:15;;;;;;;7.88;4.15;;;;;;;;;;4992869;28;20053;-68
2024/02/16 07:22:42;;;;;;;10.38;4.75;;;;;;;;;;4974569;28;20133;-68
2024/02/16 07:25:10;;;;;;;8.80;4.95;;;;;;;;;;4981532;28;20082;-66
2024/02/16 07:27:41;;;;;;;9.02;4.25;;;;;;;;;;4968626;28;20065;-69
2024/02/16 07:30:10;;;;;;;10.77;3.72;;;;;;;;;;4980448;28;20114;-67
2024/02/16 07:32:37;;;;;;;7.82;3.85;;;;;;;;;;4976871;28;20147;-69
2024/02/16 07:35:10;;;;;;;9.20;4.25;;;;;;;;;;4976438;28;20063;-69
2024/02/16 07:37:36;;;;;;;10.20;3.67;;;;;;;;;;4968407;28;20121;-67
2024/02/16 07:40:09;;;;;;;8.75;3.58;;;;;;;;;;4965435;28;20162;-66
2024/02/16 07:42:42;;;;;;;9.05;3.30;;;;;;;;;;5004436;28;20049;-68
2024/02/16 07:45:11;;;;;;;9.65;3.10;;;;;;;;;;4972547;28;20057;-69
2024/02/16 07:47:38;;;;;;;10.30;2.88;;;;;;;;;;4973297;28;20050;-68
2024/02/16 07:50:09;;;;;;;5.28;2.53;;;;;;;;;;4971632;28;20139;-69
2024/02/16 07:52:37;;;;;;;9.38;2.65;;;;;;;;;;4973492;28;20125;-65
2024/02/16 07:55:08;;;;;;;6.37;2.57;;;;;;;;;;5009092;28;20058;-66
2024/02/16 07:57:40;;;;;;;8.65;2.20;;;;;;;;;;4995211;28;20085;-67
2024/02/16 08:00:11;;;;;;;5.10;2.25;;;;;;;;;;4965456;28;20113;-68
2024/02/16 08:02:39;;;;;;;5.43;1.88;;;;;;;;;;4963919;28;20058;-67
2024/02/16 08:05:08;;;;;;;9.07;2.70;;;;;;;;;;4970474;28;20054;-69
2024/02/16 08:07:35;;;;;;;3.33;1.65;;;;;;;;;;4972459;28;20062;-68
2024/02/16 08:10:05;;;;;;;12.35;3.17;;;;;;;;;;4972802;28;20050;-68
2024/02/16 08:12:32;;;;;;;8.98;2.65;;;;;;;;;;5009450;28;20058;-66
2024/02/16 08:15:06;;;;;;;6.80;2.08;;;;;;;;;;4977285;28;20145;-67
2024/02/16 08:17:34;;;;;;;6.53;2.40;;;;;;;;;;4953303;28;20055;-69
2024/02/16 08:20:01;;;;;;;7.78;2.58;;;;;;;;;;4966499;28;20073;-66
2024/02/16 08:22:28;;;;;;;6.47;2.45;;;;;;;;;;4996301;28;20051;-69
2024/02/16 08:24:55;;;;;;;5.90;2.30;;;;;;;;;;4975852;28;20065;-67
2024/02/16 08:27:22;;;;;;;5.28;2.25;;;;;;;;;;4990270;28;20138;-66
2024/02/16 08:29:49;;;;;;;9.93;2.80;;;;;;;;;;4972915;28;20109;-68
2024/02/16 08:32:17;;;;;;;9.13;3.33;;;;;;;;;;4973715;28;20165;-68
2024/02/16 08:34:45;;;;;;;8.40;3.20;;;;;;;;;;4975158;28;20054;-66
2024/02/16 08:37:12;;;;;;;9.07;2.83;;;;;;;;;;4969687;28;20109;-67
2024/02/16 08:39:41;;;;;;;6.32;2.40;;;;;;;;;;4970348;28;20120;-68
2024/02/16 08:42:09;;;;;;;7.57;2.63;;;;;;;;;;4970200;28;20057;-70
2024/02/16 08:44:37;;;;;;;10.95;2.67;;;;;;;;;;4966306;28;20046;-69
2024/02/16 08:47:09;;;;;;;10.15;2.42;;;;;;;;;;4969716;28;20054;-70
2024/02/16 08:49:38;;;;;;;13.45;2.97;;;;;;;;;;4977138;28;20159;-67
2024/02/16 08:52:10;;;;;;;6.03;2.30;;;;;;;;;;4962495;28;20100;-66
2024/02/16 08:54:37;;;;;;;9.27;2.83;;;;;;;;;;4996352;28;20055;-67
2024/02/16 08:57:05;;;;;;;7.97;2.97;;;;;;;;;;4958744;28;20175;-66
2024/02/16 08:59:34;;;;;;;11.18;3.67;;;;;;;;;;4971773;28;20141;-70
2024/02/16 09:02:01;;;;;;;8.13;2.75;;;;;;;;;;5003956;28;20159;-69
2024/02/16 09:04:27;;;;;;;8.05;3.17;;;;;;;;;;4975911;28;20050;-66
2024/02/16 09:06:56;;;;;;;6.70;2.55;;;;;;;;;;4960946;28;20104;-69
2024/02/16 09:09:23;;;;;;;12.55;3.15;;;;;;;;;;4976204;28;20054;-66
2024/02/16 09:11:50;;;;;;;8.25;2.85;;;;;;;;;;4961225;28;20177;-67
2024/02/16 09:14:18;;;;;;;11.65;3.00;;;;;;;;;;4976402;28;20117;-66
2024/02/16 09:16:51;;;;;;;12.27;2.70;;;;;;;;;;4971821;28;20136;-69
2024/02/16 09:19:23;;;;;;;9.32;2.85;;;;;;;;;;4966806;28;20088;-69
2024/02/16 09:21:51;;;;;;;9.60;2.55;;;;;;;;;;4966879;28;20166;-70
2024/02/16 09:24:24;;;;;;;6.25;2.47;;;;;;;;;;4990218;28;20057;-69
2024/02/16 09:26:51;;;;;;;10.68;2.78;;;;;;;;;;4957573;28;20050;-69
2024/02/16 09:29:18;;;;;;;4.85;2.20;;;;;;;;;;4977292;28;20060;-68
2024/02/16 09:31:45;;;;;;;6.20;2.55;;;;;;;;;;4964290;28;20061;-68
2024/02/16 09:34:12;;;;;;;6.47;2.63;;;;;;;;;;4973624;28;20045;-67
2024/02/16 09:36:41;;;;;;;17.80;7.15;;;;;;;;;;4968208;28;20057;-72
2024/02/16 09:39:07;;;;;;;6.32;3.03;;;;;;;;;;4967168;28;20058;-66
2024/02/16 09:41:37;;;;;;;7.95;3.00;;;;;;;;;;4968918;28;20047;-69
2024/02/16 09:44:06;;;;;;;14.98;5.60;;;;;;;;;;4970702;28;20137;-68
2024/02/16 09:46:34;;;;;;;12.05;2.80;;;;;;;;;;4961222;28;20069;-68
2024/02/16 09:49:02;;;;;;;9.23;2.80;;;;;;;;;;4975695;28;20077;-68
2024/02/16 09:51:29;;;;;;;9.90;3.15;;;;;;;;;;4974141;28;20050;-67
2024/02/16 09:53:56;;;;;;;13.65;2.90;;;;;;;;;;4975892;28;20057;-66
2024/02/16 09:56:24;;;;;;;7.45;2.90;;;;;;;;;;4976286;28;20065;-66
2024/02/16 09:58:52;;;;;;;7.95;3.13;;;;;;;;;;4969418;28;20053;-65
2024/02/16 10:01:21;;;;;;;7.85;3.55;;;;;;;;;;4971632;28;20053;-68
2024/02/16 10:03:52;;;;;;;8.00;2.90;;;;;;;;;;4963786;28;20136;-67
2024/02/16 10:06:22;;;;;;;9.35;3.35;;;;;;;;;;4974170;28;20042;-68
2024/02/16 10:08:50;;;;;;;7.18;3.13;;;;;;;;;;4990817;28;20054;-68
2024/02/16 10:11:18;;;;;;;13.52;3.90;;;;;;;;;;4960766;28;20059;-66
2024/02/16 10:13:57;;;;;;;7.25;2.83;;;;;;;;;;4959980;28;20141;-66
2024/02/16 10:16:24;;;;;;;;;;;;;;;;;;4967652;28;20064;-66
2024/02/16 10:18:51;;;;;;;11.98;2.55;;;;;;;;;;4961692;28;19925;-68
2024/02/16 10:21:26;;;;;;;11.45;3.20;;;;;;;;;;4972094;28;20226;-66
2024/02/16 10:24:01;;;;;;;10.85;3.25;;;;;;;;;;4967813;28;20057;-68
2024/02/16 10:26:28;;;;;;;8.63;3.53;;;;;;;;;;4968705;28;20054;-68
2024/02/16 10:29:02;;;;;;;8.50;3.40;;;;;;;;;;4970538;28;20061;-69
2024/02/16 10:31:30;;;;;;;7.85;3.15;;;;;;;;;;4973146;28;20122;-68
2024/02/16 10:34:01;;;;;;;8.80;3.20;;;;;;;;;;4970812;28;20073;-69
2024/02/16 10:36:29;;;;;;;9.48;3.20;;;;;;;;;;4997602;28;20054;-65
2024/02/16 10:38:57;;;;;;;13.15;3.60;;;;;;;;;;4971945;28;20054;-68
2024/02/16 10:41:29;;;;;;;5.07;2.50;;;;;;;;;;4999054;28;20086;-65
2024/02/16 10:43:56;;;;;;;7.47;3.25;;;;;;;;;;4968753;28;20054;-68
2024/02/16 10:46:25;;;;;;;13.38;3.65;;;;;;;;;;4969858;28;20074;-67
2024/02/16 10:48:52;;;;;;;;;;;;;;;;;;4973618;28;20054;-68
2024/02/16 10:51:23;;;;;;;15.68;6.40;;;;;;;;;;4976926;28;19933;-69
2024/02/16 10:53:53;;;;;;;12.95;3.70;;;;;;;;;;4964795;28;20054;-66
2024/02/16 10:56:28;;;;;;;16.58;4.00;;;;;;;;;;4975339;28;20050;-67
2024/02/16 10:58:55;;;;;;;11.45;3.65;;;;;;;;;;4981751;28;20055;-65
2024/02/16 11:01:24;;;;;;;8.88;3.72;;;;;;;;;;4958676;28;20094;-68
2024/02/16 11:04:01;;;;;;;;;;;;;;;;;;4938295;28;20062;-69
2024/02/16 11:06:28;;;;;;;13.68;3.30;;;;;;;;;;4953983;28;20032;-67
2024/02/16 11:08:55;;;;;;;8.05;3.67;;;;;;;;;;4972636;28;20062;-68
2024/02/16 11:11:25;;;;;;;11.70;4.38;;;;;;;;;;4977382;28;20069;-68
2024/02/16 11:13:56;;;;;;;13.18;4.40;;;;;;;;;;4996308;28;20059;-68
2024/02/16 11:16:24;;;;;;;11.32;4.80;;;;;;;;;;4973216;28;20047;-65
2024/02/16 11:18:52;;;;;;;8.20;4.03;;;;;;;;;;4956324;28;20051;-66
2024/02/16 11:21:19;;;;;;;8.45;4.15;;;;;;;;;;4980239;28;20050;-68
2024/02/16 11:23:49;;;;;;;15.45;4.22;;;;;;;;;;4982812;28;20067;-68
2024/02/16 11:26:19;;;;;;;12.90;5.20;;;;;;;;;;4942330;28;20050;-67
2024/02/16 11:28:46;;;;;;;10.55;4.53;;;;;;;;;;4977177;28;20058;-69
2024/02/16 11:31:13;;;;;;;10.48;4.28;;;;;;;;;;4999727;28;20054;-66
2024/02/16 11:33:45;;;;;;;10.23;4.32;;;;;;;;;;4977173;28;20111;-68
2024/02/16 11:36:13;;;;;;;9.38;4.15;;;;;;;;;;4976558;28;20078;-67
2024/02/16 11:38:40;;;;;;;7.10;3.72;;;;;;;;;;4963615;28;20077;-68
2024/02/16 11:41:08;;;;;;;7.75;3.10;;;;;;;;;;4971222;28;20054;-66
2024/02/16 11:43:37;;;;;;;9.40;3.37;;;;;;;;;;4975371;28;20081;-68
2024/02/16 11:46:14;;;;;;;10.38;3.80;;;;;;;;;;4974730;28;20078;-67
2024/02/16 11:48:41;;;;;;;8.73;3.95;;;;;;;;;;4974066;28;20214;-66
2024/02/16 11:51:08;;;;;;;9.05;3.70;;;;;;;;;;4976033;28;20109;-68
2024/02/16 11:53:36;;;;;;;11.30;3.90;;;;;;;;;;4978942;28;20046;-66
2024/02/16 11:56:03;;;;;;;10.23;3.42;;;;;;;;;;4973436;28;20093;-65
2024/02/16 11:58:31;;;;;;;8.13;3.65;;;;;;;;;;4971195;28;20086;-67
2024/02/16 12:00:59;;;;;;;8.77;3.38;;;;;;;;;;4978354;28;20050;-65
2024/02/16 12:03:28;;;;;;;7.40;3.50;;;;;;;;;;4968896;28;20105;-68
2024/02/16 12:05:55;;;;;;;9.23;3.72;;;;;;;;;;4987745;28;20063;-65
2024/02/16 12:08:23;;;;;;;7.43;3.53;;;;;;;;;;4986501;28;20049;-66
2024/02/16 12:10:52;;;;;;;8.10;3.47;;;;;;;;;;4971476;28;20132;-69
2024/02/16 12:13:20;;;;;;;8.38;3.70;;;;;;;;;;4961738;28;20062;-66
2024/02/16 12:15:50;;;;;;;7.55;3.50;;;;;;;;;;4975135;28;20068;-67
2024/02/16 12:18:24;;;;;;;7.70;4.03;;;;;;;;;;4963815;28;20058;-69
2024/02/16 12:20:59;;;;;;;7.80;3.25;;;;;;;;;;4972241;28;20173;-67
2024/02/16 12:23:26;;;;;;;7.28;3.40;;;;;;;;;;4969101;28;20043;-68
2024/02/16 12:25:55;;;;;;;7.80;3.88;;;;;;;;;;4966753;28;20142;-65
2024/02/16 12:28:25;;;;;;;9.75;3.45;;;;;;;;;;4975288;28;20046;-65
2024/02/16 12:30:52;;;;;;;11.10;3.80;;;;;;;;;;4977702;28;20064;-69
2024/02/16 12:33:19;;;;;;;8.27;4.15;;;;;;;;;;4972662;28;20053;-67
2024/02/16 12:35:46;;;;;;;7.53;3.95;;;;;;;;;;4974885;28;20061;-67
2024/02/16 12:38:13;;;;;;;7.03;3.70;;;;;;;;;;4959141;28;20081;-67
2024/02/16 12:40:40;;;;;;;11.20;4.07;;;;;;;;;;4969982;28;20054;-68
2024/02/16 12:43:11;;;;;;;7.80;4.07;;;;;;;;;;4964294;28;20062;-67
2024/02/16 12:45:38;;;;;;;15.55;4.93;;;;;;;;;;4977311;28;20046;-65
2024/02/16 12:48:06;;;;;;;11.50;4.03;;;;;;;;;;4957568;28;20171;-67
2024/02/16 12:50:35;;;;;;;8.87;4.40;;;;;;;;;;4970580;28;20050;-66
2024/02/16 12:53:02;;;;;;;7.53;3.80;;;;;;;;;;4977893;28;20058;-68
2024/02/16 12:55:30;;;;;;;8.80;4.38;;;;;;;;;;4974545;28;20073;-69
2024/02/16 12:57:57;;;;;;;9.30;4.57;;;;;;;;;;4959308;28;20054;-69
2024/02/16 13:00:26;;;;;;;14.05;5.50;;;;;;;;;;4971816;28;20122;-65
2024/02/16 13:02:52;;;;;;;9.43;4.90;;;;;;;;;;4972697;28;20153;-67
2024/02/16 13:05:19;;;;;;;10.40;5.10;;;;;;;;;;4967937;28;20051;-68
2024/02/16 13:07:46;;;;;;;8.93;4.05;;;;;;;;;;4968510;28;20047;-66
2024/02/16 13:10:13;;;;;;;11.18;5.18;;;;;;;;;;4976628;28;20058;-68
2024/02/16 13:12:42;;;;;;;8.25;3.72;;;;;;;;;;4984616;28;20069;-67
2024/02/16 13:15:09;;;;;;;9.00;4.88;;;;;;;;;;4994064;28;20054;-66
2024/02/16 13:17:38;;;;;;;10.43;4.88;;;;;;;;;;4972069;28;20058;-67
2024/02/16 13:20:09;;;;;;;11.77;5.70;;;;;;;;;;4973541;28;20054;-67
2024/02/16 13:22:38;;;;;;;9.38;4.10;;;;;;;;;;4980569;28;20053;-70
2024/02/16 13:25:06;;;;;;;8.82;3.75;;;;;;;;;;4975883;28;20054;-68
2024/02/16 13:27:34;;;;;;;10.50;4.07;;;;;;;;;;4968598;28;20125;-69
2024/02/16 13:30:01;;;;;;;7.60;3.22;;;;;;;;;;4958966;28;20054;-66
2024/02/16 13:32:30;;;;;;;6.95;3.20;;;;;;;;;;4997880;28;20055;-68
2024/02/16 13:34:59;;;;;;;8.10;3.65;;;;;;;;;;4976507;28;20050;-69
2024/02/16 13:37:30;;;;;;;11.95;3.80;;;;;;;;;;4970536;28;20086;-69
2024/02/16 13:39:56;;;;;;;6.85;3.17;;;;;;;;;;4968634;28;20153;-66
2024/02/16 13:42:23;;;;;;;5.55;2.65;;;;;;;;;;4965420;28;20047;-67
2024/02/16 13:44:50;;;;;;;5.85;2.97;;;;;;;;;;5001207;28;20062;-66
2024/02/16 13:47:19;;;;;;;5.18;2.20;;;;;;;;;;4963592;28;20062;-69
2024/02/16 13:49:47;;;;;;;6.53;2.92;;;;;;;;;;4966373;28;20058;-67
2024/02/16 13:52:17;;;;;;;5.50;2.63;;;;;;;;;;4967642;28;20055;-70
2024/02/16 13:54:43;;;;;;;7.55;3.08;;;;;;;;;;4957520;28;20050;-68
2024/02/16 13:57:11;;;;;;;4.72;2.22;;;;;;;;;;4925946;28;20062;-66
2024/02/16 13:59:41;;;;;;;6.35;2.75;;;;;;;;;;4955642;28;20351;-67
2024/02/16 14:02:10;;;;;;;4.40;2.20;;;;;;;;;;4962230;28;20054;-70
2024/02/16 14:04:37;;;;;;;4.68;2.17;;;;;;;;;;4972583;28;20086;-69
2024/02/16 14:07:05;;;;;;;4.78;1.77;;;;;;;;;;4963776;28;20050;-66
2024/02/16 14:09:33;;;;;;;7.00;2.38;;;;;;;;;;4955909;28;20065;-67
2024/02/16 14:12:00;;;;;;;4.05;1.90;;;;;;;;;;4951857;28;20206;-68
2024/02/16 14:14:27;;;;;;;4.63;2.00;;;;;;;;;;4953613;28;20059;-67
2024/02/16 14:16:54;;;;;;;3.50;1.90;;;;;;;;;;4941055;28;20134;-68
2024/02/16 14:19:21;;;;;;;4.95;1.90;;;;;;;;;;4954306;28;20058;-66
2024/02/16 14:21:50;;;;;;;3.35;1.50;;;;;;;;;;4966246;28;20050;-64
2024/02/16 14:24:17;;;;;;;4.13;1.73;;;;;;;;;;4979711;28;20046;-67
2024/02/16 14:26:46;;;;;;;4.30;1.88;;;;;;;;;;4974750;28;20078;-69
2024/02/16 14:29:13;;;;;;;;;;;;;;;;;;4949208;28;20065;-69
2024/02/16 14:31:40;;;;;;;5.35;1.50;;;;;;;;;;4977407;28;19926;-69
2024/02/16 14:34:07;;;;;;;4.13;1.75;;;;;;;;;;4950469;28;21109;-67
2024/02/16 14:36:34;;;;;;;3.22;1.60;;;;;;;;;;4947503;28;20066;-67
2024/02/16 14:39:02;;;;;;;4.75;1.67;;;;;;;;;;4952713;28;20061;-67
2024/02/16 14:42:14;;;;;;;3.45;1.45;;;;;;;;;;4950896;28;20063;-67
2024/02/16 14:44:42;;;;;;;4.38;1.70;;;;;;;;;;4952777;28;20051;-72
2024/02/16 14:47:10;;;;;;;3.60;1.60;;;;;;;;;;4947714;28;20114;-69
2024/02/16 14:49:37;;;;;;;3.03;1.50;;;;;;;;;;4959131;28;20188;-67
2024/02/16 14:52:04;;;;;;;3.95;1.35;;;;;;;;;;4955206;28;20086;-70
2024/02/16 14:54:32;;;;;;;5.05;1.90;;;;;;;;;;4945774;28;20063;-68
2024/02/16 14:57:03;;;;;;;4.28;1.60;;;;;;;;;;4952415;28;20059;-66
2024/02/16 14:59:31;;;;;;;4.82;1.88;;;;;;;;;;4994886;28;20048;-67
2024/02/16 15:02:01;;;;;;;5.70;1.90;;;;;;;;;;4967932;28;20050;-69
2024/02/16 15:04:27;;;;;;;5.05;1.70;;;;;;;;;;4964999;28;20169;-68
2024/02/16 15:06:54;;;;;;;4.38;1.60;;;;;;;;;;4953215;28;20059;-66
2024/02/16 15:09:22;;;;;;;3.33;1.50;;;;;;;;;;4967834;28;20046;-70
2024/02/16 15:11:49;;;;;;;2.88;1.30;;;;;;;;;;4962544;28;20062;-66
2024/02/16 15:14:17;;;;;;;2.80;1.42;;;;;;;;;;4964433;28;20114;-69
2024/02/16 15:16:46;;;;;;;5.22;1.65;;;;;;;;;;4961571;28;20054;-69
2024/02/16 15:19:13;;;;;;;3.85;1.63;;;;;;;;;;4967969;28;20193;-65
2024/02/16 15:25:13;;;;;;;3.28;1.63;;;;;;;;;;4971431;28;20054;-66
2024/02/16 15:27:40;;;;;;;3.50;1.60;;;;;;;;;;4961740;28;20054;-68
2024/02/16 15:30:10;;;;;;;4.10;1.95;;;;;;;;;;4987786;28;20073;-69
2024/02/16 15:32:37;;;;;;;4.45;1.55;;;;;;;;;;4967848;28;20062;-70
2024/02/16 15:35:06;;;;;;;3.40;1.60;;;;;;;;;;5004063;28;20050;-70
2024/02/16 15:37:33;;;;;;;4.80;1.95;;;;;;;;;;4921684;28;20048;-66
2024/02/16 15:40:00;;;;;;;3.78;1.95;;;;;;;;;;4961010;28;20035;-69
2024/02/16 15:42:29;;;;;;;5.95;2.25;;;;;;;;;;4957071;28;20050;-69
2024/02/16 15:44:56;;;;;;;;;;;;;;;;;;4972046;28;20054;-67
2024/02/16 15:47:24;;;;;;;4.30;2.00;;;;;;;;;;4960906;28;20013;-67
2024/02/16 15:49:51;;;;;;;5.32;2.10;;;;;;;;;;4961968;28;20101;-68
2024/02/16 15:52:18;;;;;;;5.03;2.05;;;;;;;;;;4973803;28;20100;-66
2024/02/16 15:54:45;;;;;;;4.90;2.20;;;;;;;;;;4968833;28;20050;-69
2024/02/16 15:57:12;;;;;;;7.93;2.45;;;;;;;;;;4962955;28;20058;-69
2024/02/16 15:59:42;;;;;;;7.15;2.25;;;;;;;;;;4980198;28;20050;-65
2024/02/16 16:02:09;;;;;;;11.55;5.15;;;;;;;;;;4991905;28;20093;-69
2024/02/16 16:04:38;;;;;;;16.48;7.20;;;;;;;;;;4961771;28;20050;-68
2024/02/16 16:07:06;;;;;;;10.52;5.18;;;;;;;;;;4964977;28;20050;-72
2024/02/16 16:09:33;;;;;;;17.88;6.50;;;;;;;;;;4962203;28;20121;-68
2024/02/16 16:12:00;;;;;;;8.07;3.85;;;;;;;;;;4968264;28;20054;-69
2024/02/16 16:14:27;;;;;;;13.45;3.85;;;;;;;;;;4975382;28;20064;-69
2024/02/16 16:16:55;;;;;;;5.72;2.60;;;;;;;;;;4962348;28;20046;-66
2024/02/16 16:19:22;;;;;;;7.93;2.90;;;;;;;;;;4936530;28;20054;-69
2024/02/16 16:21:53;;;;;;;11.07;5.55;;;;;;;;;;4965961;28;20054;-67
2024/02/16 16:24:20;;;;;;;7.93;2.97;;;;;;;;;;4964752;28;20061;-68
2024/02/16 16:26:49;;;;;;;7.30;3.03;;;;;;;;;;4956450;28;20129;-68
2024/02/16 16:29:16;;;;;;;6.60;3.17;;;;;;;;;;4969750;28;20053;-68
2024/02/16 16:31:49;;;;;;;7.43;3.15;;;;;;;;;;4952796;28;20149;-66
2024/02/16 16:34:15;;;;;;;8.43;2.97;;;;;;;;;;4957858;28;20137;-67
2024/02/16 16:36:45;;;;;;;5.82;3.00;;;;;;;;;;4957009;28;20057;-69
2024/02/16 16:39:13;;;;;;;6.38;2.97;;;;;;;;;;4960249;28;20045;-69
2024/02/16 16:41:45;;;;;;;5.30;2.80;;;;;;;;;;4963598;28;20062;-67
2024/02/16 16:44:14;;;;;;;5.72;2.80;;;;;;;;;;4975822;28;20055;-67
2024/02/16 16:46:41;;;;;;;6.95;2.90;;;;;;;;;;4961535;28;20142;-67
2024/02/16 16:49:10;;;;;;;5.57;2.85;;;;;;;;;;4963745;28;20053;-68
2024/02/16 16:51:36;;;;;;;;;;;;;;;;;;4974195;28;20060;-68
2024/02/16 16:54:08;;;;;;;8.30;3.05;;;;;;;;;;4959043;28;21085;-69
2024/02/16 16:56:36;;;;;;;8.07;3.35;;;;;;;;;;4998680;28;20145;-69
2024/02/16 16:59:06;;;;;;;9.50;3.83;;;;;;;;;;4969871;28;20050;-68
2024/02/16 17:01:36;;;;;;;8.25;3.75;;;;;;;;;;4996540;28;20058;-66
2024/02/16 17:04:03;;;;;;;7.20;3.53;;;;;;;;;;4948095;28;20046;-66
2024/02/16 17:06:31;;;;;;;8.68;4.20;;;;;;;;;;4960273;28;20122;-67
2024/02/16 17:08:59;;;;;;;7.70;4.32;;;;;;;;;;4995140;28;20065;-68
2024/02/16 17:11:26;;;;;;;8.43;4.25;;;;;;;;;;4965239;28;20130;-69
2024/02/16 17:13:55;;;;;;;10.15;4.72;;;;;;;;;;4959295;28;20054;-70
2024/02/16 17:16:22;;;;;;;9.52;4.28;;;;;;;;;;4985253;28;20050;-65
2024/02/16 17:18:52;;;;;;;11.18;5.07;;;;;;;;;;4957075;28;20050;-65
2024/02/16 17:21:22;;;;;;;9.95;5.30;;;;;;;;;;4961909;28;20138;-66
2024/02/16 17:23:54;;;;;;;9.57;5.18;;;;;;;;;;4955142;28;20154;-69
2024/02/16 17:26:21;;;;;;;9.98;4.28;;;;;;;;;;4959120;28;20051;-67
2024/02/16 17:28:48;;;;;;;7.57;4.03;;;;;;;;;;4956598;28;20093;-65
2024/02/16 17:31:16;;;;;;;10.32;4.57;;;;;;;;;;4959236;28;20202;-68
2024/02/16 17:33:44;;;;;;;11.75;4.03;;;;;;;;;;4961712;28;20105;-65
2024/02/16 17:36:12;;;;;;;7.15;3.83;;;;;;;;;;4959478;28;20129;-69
2024/02/16 17:38:39;;;;;;;7.45;4.07;;;;;;;;;;4958693;28;20047;-67
2024/02/16 17:41:06;;;;;;;7.30;3.60;;;;;;;;;;4995728;28;20066;-67
2024/02/16 17:43:34;;;;;;;8.27;4.20;;;;;;;;;;4974018;28;20062;-70
2024/02/16 17:46:01;;;;;;;8.32;4.18;;;;;;;;;;4954876;28;20134;-69
2024/02/16 17:48:30;;;;;;;9.43;4.13;;;;;;;;;;4952692;28;20062;-70
2024/02/16 17:50:57;;;;;;;9.10;4.15;;;;;;;;;;4957657;28;20055;-67
2024/02/16 17:53:24;;;;;;;9.55;4.45;;;;;;;;;;4993828;28;20131;-70
2024/02/16 17:55:51;;;;;;;8.10;4.57;;;;;;;;;;4956655;28;20069;-72
2024/02/16 17:58:18;;;;;;;9.05;5.03;;;;;;;;;;4965083;28;20062;-68
2024/02/16 18:00:46;;;;;;;9.90;4.60;;;;;;;;;;4976524;28;20057;-70
2024/02/16 18:03:12;;;;;;;13.35;6.03;;;;;;;;;;4965331;28;20054;-66
2024/02/16 18:05:41;;;;;;;17.02;5.05;;;;;;;;;;4971175;28;20073;-69
2024/02/16 18:08:08;;;;;;;;;;;;;;;;;;4960927;28;20065;-66
2024/02/16 18:10:35;;;;;;;8.90;4.55;;;;;;;;;;5003885;28;20049;-70
2024/02/16 18:13:02;;;;;;;9.57;4.80;;;;;;;;;;4956447;28;20158;-69
2024/02/16 18:15:29;;;;;;;10.10;4.88;;;;;;;;;;4965127;28;20267;-68
2024/02/16 18:17:56;;;;;;;8.80;4.85;;;;;;;;;;4936946;28;20156;-68
2024/02/16 18:20:23;;;;;;;11.90;5.10;;;;;;;;;;4971376;28;20053;-70
2024/02/16 18:22:53;;;;;;;12.07;5.60;;;;;;;;;;4964760;28;20142;-67
2024/02/16 18:25:21;;;;;;;10.57;5.03;;;;;;;;;;4977552;28;20071;-70
2024/02/16 18:27:48;;;;;;;11.90;5.50;;;;;;;;;;4954526;28;20054;-66
2024/02/16 18:30:15;;;;;;;11.43;4.72;;;;;;;;;;4958672;28;20047;-67
2024/02/16 18:32:42;;;;;;;11.15;5.10;;;;;;;;;;4960740;28;20054;-66
2024/02/16 18:35:11;;;;;;;12.02;5.18;;;;;;;;;;4986947;28;20062;-67
2024/02/16 18:37:37;;;;;;;10.10;5.18;;;;;;;;;;4957644;28;20054;-67
2024/02/16 18:40:09;;;;;;;15.77;5.88;;;;;;;;;;4956086;28;20137;-69
2024/02/16 18:42:36;;;;;;;12.25;5.25;;;;;;;;;;4957392;28;20065;-69
2024/02/16 18:45:08;;;;;;;11.10;5.40;;;;;;;;;;4978275;28;20058;-70
2024/02/16 18:47:35;;;;;;;11.57;6.07;;;;;;;;;;4959640;28;20054;-66
2024/02/16 18:50:01;;;;;;;13.82;5.88;;;;;;;;;;4958690;28;20062;-66
2024/02/16 18:52:28;;;;;;;11.30;5.30;;;;;;;;;;4964244;28;20050;-66
2024/02/16 18:54:55;;;;;;;11.15;6.15;;;;;;;;;;4973588;28;20050;-68
2024/02/16 18:57:23;;;;;;;20.85;7.70;;;;;;;;;;4966336;28;20054;-69
2024/02/16 18:59:53;;;;;;;15.23;5.32;;;;;;;;;;4971225;28;20068;-69
2024/02/16 19:02:23;;;;;;;13.82;5.35;;;;;;;;;;4981945;28;20118;-70
2024/02/16 19:04:50;;;;;;;14.80;5.78;;;;;;;;;;4994376;28;20104;-66
2024/02/16 19:07:18;;;;;;;11.73;5.57;;;;;;;;;;4961540;28;20066;-66
2024/02/16 19:09:51;;;;;;;15.13;5.65;;;;;;;;;;4965174;28;20057;-68
2024/02/16 19:12:22;;;;;;;12.90;5.93;;;;;;;;;;4967131;28;20125;-70
2024/02/16 19:14:50;;;;;;;16.88;5.40;;;;;;;;;;4965772;28;20054;-67
2024/02/16 19:17:17;;;;;;;14.55;6.85;;;;;;;;;;4936235;28;20058;-66
2024/02/16 19:19:45;;;;;;;16.48;6.63;;;;;;;;;;4926603;28;20066;-67
2024/02/16 19:22:54;;;;;;;15.77;7.10;;;;;;;;;;4953143;28;20058;-70
2024/02/16 19:25:23;;;;;;;16.38;7.18;;;;;;;;;;4960134;28;20182;-67
2024/02/16 19:27:51;;;;;;;16.13;7.28;;;;;;;;;;4941248;28;20047;-68
2024/02/16 19:30:20;;;;;;;16.63;7.47;;;;;;;;;;4938135;28;20055;-67
2024/02/16 19:32:47;;;;;;;;;;;;;;;;;;4941288;28;20047;-70
2024/02/16 19:35:14;;;;;;;17.75;8.63;;;;;;;;;;4952336;28;19952;-70
2024/02/16 19:37:42;;;;;;;17.73;8.13;;;;;;;;;;4967868;28;20059;-67
2024/02/16 19:40:12;;;;;;;18.58;8.05;;;;;;;;;;4946994;28;20059;-68
2024/02/16 19:42:40;;;;;;;15.20;7.78;;;;;;;;;;4952406;28;20055;-68
2024/02/16 19:45:19;;;;;;;19.98;8.38;;;;;;;;;;4938079;28;20071;-70
2024/02/16 19:47:51;;;;;;;17.50;7.72;;;;;;;;;;4943448;28;20142;-69
2024/02/16 19:50:18;;;;;;;12.95;5.88;;;;;;;;;;4957574;28;20059;-68
2024/02/16 20:02:47;;;;;;;10.20;4.60;;;;;;;;;;4761830;29;20062;-68
2024/02/16 20:05:34;;;;;;;12.65;5.05;;;;;;;;;;4781148;29;20073;-69
2024/02/16 20:08:01;;;;;;;12.48;5.45;;;;;;;;;;4884089;29;20077;-66
2024/02/16 20:10:28;;;;;;;10.95;4.68;;;;;;;;;;4878088;29;20056;-69
2024/02/16 20:12:55;;;;;;;9.98;4.28;;;;;;;;;;4892039;29;20059;-69
2024/02/16 20:15:28;;;;;;;12.20;5.13;;;;;;;;;;4893531;29;20062;-68
2024/02/16 20:17:55;;;;;;;12.27;4.55;;;;;;;;;;4880647;29;20063;-69
2024/02/16 20:20:22;;;;;;;9.27;4.55;;;;;;;;;;4882356;29;20143;-67
2024/02/16 20:22:51;;;;;;;9.40;4.80;;;;;;;;;;4910948;28;20157;-66
2024/02/16 20:25:21;;;;;;;9.20;4.30;;;;;;;;;;4953515;28;20051;-67
2024/02/16 20:27:49;;;;;;;11.40;4.85;;;;;;;;;;4937276;28;20062;-69
2024/02/16 20:30:17;;;;;;;13.98;4.10;;;;;;;;;;4957630;28;20058;-66
2024/02/16 20:32:45;;;;;;;12.82;4.72;;;;;;;;;;4963938;28;20047;-69
2024/02/16 20:35:12;;;;;;;10.52;4.97;;;;;;;;;;4955439;28;20125;-66
2024/02/16 20:37:39;;;;;;;15.93;5.10;;;;;;;;;;4940476;28;20067;-67
2024/02/16 20:40:11;;;;;;;12.45;5.38;;;;;;;;;;4967149;28;20054;-69
2024/02/16 20:42:39;;;;;;;10.50;4.70;;;;;;;;;;4966020;28;20046;-70
2024/02/16 20:45:07;;;;;;;13.15;4.75;;;;;;;;;;4973558;28;20129;-70
2024/02/16 20:47:34;;;;;;;15.02;4.40;;;;;;;;;;4958413;28;20071;-68
2024/02/16 20:50:01;;;;;;;12.77;4.80;;;;;;;;;;4963509;28;20107;-68
2024/02/16 20:52:27;;;;;;;13.00;4.60;;;;;;;;;;4959777;28;20047;-69